createdAt,value
2023-04-24T00:02:14.677Z,6.63
2023-04-24T00:04:45.754Z,7.07
2023-04-24T00:07:13.824Z,8.60
2023-04-24T00:09:42.915Z,7.13
2023-04-24T00:12:11.382Z,6.82
2023-04-24T00:14:38.946Z,6.05
2023-04-24T00:17:07.014Z,6.90
2023-04-24T00:19:34.610Z,6.78
2023-04-24T00:22:02.121Z,7.47
2023-04-24T00:24:29.626Z,7.53
2023-04-24T00:26:58.444Z,7.50
2023-04-24T00:29:26.037Z,9.38
2023-04-24T00:31:53.540Z,7.95
2023-04-24T00:34:21.247Z,8.43
2023-04-24T00:36:50.025Z,7.65
2023-04-24T00:39:17.538Z,7.00
2023-04-24T00:41:46.419Z,6.82
2023-04-24T00:44:15.732Z,8.75
2023-04-24T00:46:43.868Z,7.28
2023-04-24T00:49:11.698Z,7.22
2023-04-24T00:51:39.198Z,7.50
2023-04-24T00:54:06.731Z,8.95
2023-04-24T00:56:34.828Z,6.80
2023-04-24T00:59:02.325Z,6.97
2023-04-24T01:01:31.321Z,7.40
2023-04-24T01:04:00.226Z,8.15
2023-04-24T01:06:30.033Z,8.20
2023-04-24T01:08:57.638Z,6.80
2023-04-24T01:11:25.370Z,7.53
2023-04-24T01:13:53.367Z,8.05
2023-04-24T01:16:21.896Z,8.25
2023-04-24T01:18:50.927Z,8.02
2023-04-24T01:21:19.881Z,8.02
2023-04-24T01:23:48.928Z,9.55
2023-04-24T01:26:18.562Z,7.82
2023-04-24T01:28:46.067Z,8.20
2023-04-24T01:31:13.665Z,7.43
2023-04-24T01:33:41.308Z,8.30
2023-04-24T01:36:10.316Z,7.45
2023-04-24T01:38:37.873Z,7.32
2023-04-24T01:41:06.725Z,7.85
2023-04-24T01:43:34.430Z,7.88
2023-04-24T01:46:01.939Z,8.27
2023-04-24T01:48:29.795Z,8.27
2023-04-24T01:50:58.468Z,8.45
2023-04-24T01:53:25.951Z,8.45
2023-04-24T01:55:53.484Z,10.05
2023-04-24T01:58:22.906Z,10.07
2023-04-24T02:00:50.408Z,11.75
2023-04-24T02:03:18.107Z,9.02
2023-04-24T02:05:46.286Z,11.02
2023-04-24T02:08:13.875Z,9.95
2023-04-24T02:10:41.364Z,10.98
2023-04-24T02:13:08.853Z,10.65
2023-04-24T02:15:37.941Z,10.05
2023-04-24T02:18:05.590Z,11.07
2023-04-24T02:20:34.965Z,11.00
2023-04-24T02:23:02.521Z,12.23
2023-04-24T02:25:30.041Z,11.32
2023-04-24T02:27:57.535Z,11.90
2023-04-24T02:30:25.051Z,12.02
2023-04-24T02:32:53.854Z,10.60
2023-04-24T02:35:21.387Z,13.48
2023-04-24T02:37:48.889Z,11.60
2023-04-24T02:40:16.644Z,11.63
2023-04-24T02:42:44.149Z,12.05
2023-04-24T02:45:12.466Z,15.65
2023-04-24T02:47:40.040Z,13.02
2023-04-24T02:50:10.166Z,12.05
2023-04-24T02:52:37.657Z,14.75
2023-04-24T02:55:05.975Z,13.90
2023-04-24T02:57:33.445Z,14.02
2023-04-24T03:00:01.251Z,14.77
2023-04-24T03:02:28.915Z,13.25
2023-04-24T03:04:58.049Z,12.95
2023-04-24T03:07:26.860Z,13.43
2023-04-24T03:09:54.354Z,14.32
2023-04-24T03:12:21.848Z,16.50
2023-04-24T03:14:49.330Z,15.73
2023-04-24T03:17:16.815Z,16.90
2023-04-24T03:19:44.747Z,16.10
2023-04-24T03:22:13.166Z,15.85
2023-04-24T03:24:42.190Z,14.50
2023-04-24T03:27:09.700Z,15.45
2023-04-24T03:29:37.206Z,15.25
2023-04-24T03:32:04.996Z,16.48
2023-04-24T03:34:32.488Z,19.00
2023-04-24T03:36:59.970Z,15.75
2023-04-24T03:39:28.338Z,17.17
2023-04-24T03:41:57.112Z,15.40
2023-04-24T03:44:24.663Z,15.73
2023-04-24T03:46:52.182Z,14.00
2023-04-24T03:49:19.651Z,18.65
2023-04-24T03:51:47.132Z,16.40
2023-04-24T03:54:14.721Z,14.88
2023-04-24T03:56:42.235Z,15.00
2023-04-24T03:59:11.171Z,15.95
2023-04-24T04:01:39.090Z,15.00
2023-04-24T04:04:06.795Z,16.95
2023-04-24T04:06:34.498Z,15.75
2023-04-24T04:09:02.216Z,17.88
2023-04-24T04:11:29.665Z,16.80
2023-04-24T04:13:57.653Z,16.70
2023-04-24T04:16:26.497Z,18.17
2023-04-24T04:18:53.981Z,17.55
2023-04-24T04:21:21.513Z,17.55
2023-04-24T04:23:49.038Z,19.02
2023-04-24T04:26:16.644Z,18.45
2023-04-24T04:28:45.804Z,19.77
2023-04-24T04:31:13.874Z,17.75
2023-04-24T04:33:42.723Z,16.63
2023-04-24T04:36:10.414Z,15.68
2023-04-24T04:38:37.976Z,15.05
2023-04-24T04:41:05.679Z,15.45
2023-04-24T04:43:33.602Z,12.52
2023-04-24T04:46:01.704Z,16.20
2023-04-24T04:48:29.620Z,16.30
2023-04-24T04:50:58.491Z,18.13
2023-04-24T04:53:26.924Z,17.38
2023-04-24T04:55:54.549Z,15.43
2023-04-24T04:58:22.141Z,17.45
2023-04-24T05:00:49.664Z,15.23
2023-04-24T05:03:21.092Z,16.67
2023-04-24T05:05:49.281Z,14.32
2023-04-24T05:08:26.451Z,15.50
2023-04-24T05:10:54.999Z,15.93
2023-04-24T05:13:35.606Z,14.32
2023-04-24T05:16:06.494Z,15.85
2023-04-24T05:18:34.111Z,14.60
2023-04-24T05:21:02.370Z,14.45
2023-04-24T05:23:31.546Z,14.80
2023-04-24T05:25:59.292Z,15.07
2023-04-24T05:28:29.197Z,15.48
2023-04-24T05:30:57.316Z,13.30
2023-04-24T05:33:25.220Z,13.85
2023-04-24T05:35:52.861Z,13.45
2023-04-24T05:38:20.887Z,13.65
2023-04-24T05:40:49.717Z,13.57
2023-04-24T05:43:17.226Z,13.35
2023-04-24T05:45:44.739Z,11.73
2023-04-24T05:48:12.298Z,11.98
2023-04-24T05:50:39.774Z,11.25
2023-04-24T05:53:08.043Z,11.60
2023-04-24T05:55:35.617Z,9.27
2023-04-24T05:58:04.665Z,9.00
2023-04-24T06:00:32.578Z,9.70
2023-04-24T06:03:00.172Z,7.88
2023-04-24T06:05:28.279Z,7.22
2023-04-24T06:07:55.937Z,7.05
2023-04-24T06:10:23.597Z,6.38
2023-04-24T06:12:51.101Z,6.82
2023-04-24T06:15:20.582Z,6.60
2023-04-24T06:17:48.248Z,6.43
2023-04-24T06:20:15.864Z,5.43
2023-04-24T06:22:43.344Z,5.40
2023-04-24T06:25:11.038Z,6.20
2023-04-24T06:27:38.570Z,5.00
2023-04-24T06:30:07.350Z,5.45
2023-04-24T06:32:36.172Z,5.22
2023-04-24T06:35:03.678Z,4.95
2023-04-24T06:37:31.335Z,4.88
2023-04-24T06:39:58.788Z,4.93
2023-04-24T06:42:26.298Z,4.03
2023-04-24T06:44:53.758Z,3.67
2023-04-24T06:47:21.301Z,3.22
2023-04-24T06:49:51.879Z,3.38
2023-04-24T06:52:19.350Z,4.15
2023-04-24T06:54:46.839Z,3.15
2023-04-24T06:57:14.470Z,2.70
2023-04-24T06:59:42.075Z,5.57
2023-04-24T07:02:09.968Z,3.67
2023-04-24T07:04:37.819Z,3.05
2023-04-24T07:07:07.691Z,2.67
2023-04-24T07:09:39.387Z,2.70
2023-04-24T07:12:07.048Z,2.80
2023-04-24T07:14:34.513Z,3.67
2023-04-24T07:17:02.244Z,2.22
2023-04-24T07:19:29.719Z,2.35
2023-04-24T07:21:59.120Z,2.38
2023-04-24T07:24:30.830Z,2.78
2023-04-24T07:26:58.442Z,1.90
2023-04-24T07:29:26.087Z,4.68
2023-04-24T07:31:55.242Z,1.90
2023-04-24T07:34:22.801Z,2.08
2023-04-24T07:36:50.364Z,2.10
2023-04-24T07:39:17.828Z,2.58
2023-04-24T07:41:46.671Z,2.00
2023-04-24T07:44:14.123Z,2.40
2023-04-24T07:46:42.193Z,3.78
2023-04-24T07:49:13.441Z,2.10
2023-04-24T07:51:42.346Z,3.25
2023-04-24T07:54:10.572Z,2.17
2023-04-24T07:56:39.843Z,2.75
2023-04-24T07:59:08.992Z,3.20
2023-04-24T08:01:36.487Z,3.08
2023-04-24T08:04:04.348Z,2.30
2023-04-24T08:06:32.898Z,2.22
2023-04-24T08:09:01.412Z,2.17
2023-04-24T08:11:29.295Z,2.13
2023-04-24T08:13:56.898Z,2.80
2023-04-24T08:16:25.782Z,2.00
2023-04-24T08:18:53.430Z,2.40
2023-04-24T08:21:21.717Z,3.22
2023-04-24T08:23:49.224Z,5.53
2023-04-24T08:26:16.738Z,3.17
2023-04-24T08:28:44.491Z,3.80
2023-04-24T08:31:12.167Z,2.95
2023-04-24T08:33:41.935Z,2.38
2023-04-24T08:36:09.597Z,2.65
2023-04-24T08:38:37.093Z,2.20
2023-04-24T08:41:05.531Z,1.90
2023-04-24T08:43:35.324Z,2.28
2023-04-24T08:46:06.091Z,2.00
2023-04-24T08:48:36.611Z,2.05
2023-04-24T08:51:11.710Z,2.35
2023-04-24T08:53:39.778Z,2.40
2023-04-24T08:56:07.377Z,2.58
2023-04-24T08:58:35.621Z,2.70
2023-04-24T09:01:03.885Z,3.75
2023-04-24T09:03:33.270Z,3.22
2023-04-24T09:06:02.022Z,4.15
2023-04-24T09:08:32.694Z,3.33
2023-04-24T09:11:02.905Z,2.63
2023-04-24T09:13:30.746Z,2.50
2023-04-24T09:15:59.303Z,2.10
2023-04-24T09:18:28.056Z,3.20
2023-04-24T09:21:04.193Z,2.15
2023-04-24T09:23:33.793Z,2.10
2023-04-24T09:26:02.551Z,2.35
2023-04-24T09:28:32.683Z,2.30
2023-04-24T09:31:09.030Z,1.98
2023-04-24T09:33:36.918Z,1.95
2023-04-24T09:36:05.002Z,1.80
2023-04-24T09:38:36.074Z,2.20
2023-04-24T09:41:04.966Z,2.33
2023-04-24T09:43:32.920Z,2.20
2023-04-24T09:46:02.010Z,2.65
2023-04-24T09:48:33.690Z,2.47
2023-04-24T09:51:02.759Z,2.78
2023-04-24T09:53:30.342Z,2.78
2023-04-24T09:56:04.558Z,2.75
2023-04-24T09:58:32.167Z,2.65
2023-04-24T10:00:59.651Z,2.88
2023-04-24T10:03:30.669Z,2.85
2023-04-24T10:06:00.758Z,2.72
2023-04-24T10:08:34.762Z,2.30
2023-04-24T10:11:03.979Z,3.45
2023-04-24T10:13:32.304Z,2.00
2023-04-24T10:16:02.462Z,1.92
2023-04-24T10:18:30.852Z,1.90
2023-04-24T10:20:59.427Z,1.95
2023-04-24T10:23:27.287Z,2.38
2023-04-24T10:25:55.831Z,2.33
2023-04-24T10:28:26.530Z,2.05
2023-04-24T10:30:56.694Z,1.95
2023-04-24T10:33:24.965Z,2.00
2023-04-24T10:35:53.768Z,2.30
2023-04-24T10:38:26.901Z,2.28
2023-04-24T10:40:59.747Z,1.80
2023-04-24T10:43:28.650Z,1.92
2023-04-24T10:46:03.974Z,2.75
2023-04-24T10:48:31.702Z,2.38
2023-04-24T10:50:59.424Z,2.35
2023-04-24T10:53:30.596Z,1.90
2023-04-24T10:56:05.327Z,1.90
2023-04-24T10:58:41.944Z,2.20
2023-04-24T11:01:09.666Z,1.98
2023-04-24T11:03:38.153Z,1.95
2023-04-24T11:06:07.936Z,2.10
2023-04-24T11:08:41.662Z,1.90
2023-04-24T11:11:13.787Z,2.00
2023-04-24T11:14:06.099Z,2.47
2023-04-24T11:16:35.524Z,3.42
2023-04-24T11:19:05.064Z,2.38
2023-04-24T11:21:43.301Z,2.80
2023-04-24T11:24:32.018Z,2.50
2023-04-24T11:27:02.615Z,3.05
2023-04-24T11:29:45.894Z,3.05
2023-04-24T11:32:30.850Z,2.95
2023-04-24T11:34:59.907Z,2.30
2023-04-24T11:37:29.500Z,2.17
2023-04-24T11:39:59.355Z,14.65
2023-04-24T11:42:27.002Z,2.17
2023-04-24T11:44:57.872Z,3.40
2023-04-24T11:47:32.046Z,2.08
2023-04-24T11:50:00.709Z,1.80
2023-04-24T11:52:29.180Z,4.63
2023-04-24T11:54:57.144Z,2.20
2023-04-24T11:57:28.811Z,2.38
2023-04-24T11:59:57.788Z,2.28
2023-04-24T12:02:25.977Z,2.88
2023-04-24T12:04:54.744Z,2.58
2023-04-24T12:07:23.207Z,2.40
2023-04-24T12:09:52.792Z,2.40
2023-04-24T12:12:20.737Z,1.80
2023-04-24T12:14:54.627Z,1.85
2023-04-24T12:17:29.292Z,2.28
2023-04-24T12:20:00.231Z,1.90
2023-04-24T12:22:27.910Z,2.50
2023-04-24T12:25:03.028Z,1.83
2023-04-24T12:27:32.976Z,2.00
2023-04-24T12:30:01.305Z,2.80
2023-04-24T12:32:30.180Z,3.00
2023-04-24T12:34:58.556Z,1.88
2023-04-24T12:37:27.498Z,1.75
2023-04-24T12:40:06.827Z,3.15
2023-04-24T12:42:34.756Z,1.70
2023-04-24T12:45:05.067Z,1.67
2023-04-24T12:47:34.960Z,1.58
2023-04-24T12:50:02.627Z,2.88
2023-04-24T12:52:31.989Z,1.80
2023-04-24T12:55:00.919Z,1.90
2023-04-24T12:57:30.148Z,2.60
2023-04-24T12:59:58.864Z,1.95
2023-04-24T13:02:27.582Z,2.15
2023-04-24T13:04:56.526Z,2.78
2023-04-24T13:07:24.196Z,2.95
2023-04-24T13:09:53.413Z,2.95
2023-04-24T13:12:21.769Z,3.10
2023-04-24T13:14:49.297Z,2.40
2023-04-24T13:17:17.209Z,2.10
2023-04-24T13:19:46.109Z,3.55
2023-04-24T13:22:15.068Z,2.50
2023-04-24T13:24:42.975Z,1.83
2023-04-24T13:27:11.101Z,2.92
2023-04-24T13:29:38.728Z,3.55
2023-04-24T13:32:06.517Z,2.20
2023-04-24T13:34:35.485Z,1.73
2023-04-24T13:37:04.685Z,1.63
2023-04-24T13:39:33.925Z,2.08
2023-04-24T13:42:04.381Z,2.47
2023-04-24T13:44:32.705Z,1.88
2023-04-24T13:47:00.767Z,1.60
2023-04-24T13:49:28.888Z,1.90
2023-04-24T13:51:57.672Z,2.00
2023-04-24T13:54:26.984Z,1.70
2023-04-24T13:56:59.774Z,1.90
2023-04-24T13:59:27.458Z,2.75
2023-04-24T14:01:55.736Z,5.35
2023-04-24T14:04:23.445Z,1.80
2023-04-24T14:06:51.427Z,7.93
2023-04-24T14:09:18.928Z,2.20
2023-04-24T14:11:46.491Z,2.30
2023-04-24T14:14:15.536Z,2.22
2023-04-24T14:16:43.070Z,2.03
2023-04-24T14:19:10.544Z,1.83
2023-04-24T14:21:38.026Z,2.30
2023-04-24T14:24:05.745Z,2.35
2023-04-24T14:26:33.275Z,1.90
2023-04-24T14:29:11.726Z,2.28
2023-04-24T14:31:43.571Z,1.80
2023-04-24T14:34:11.393Z,2.28
2023-04-24T14:36:39.087Z,1.98
2023-04-24T14:39:07.949Z,2.85
2023-04-24T14:41:36.982Z,2.65
2023-04-24T14:44:04.769Z,4.60
2023-04-24T14:46:32.792Z,2.35
2023-04-24T14:49:01.675Z,2.20
2023-04-24T14:51:29.195Z,1.88
2023-04-24T14:53:58.198Z,2.75
2023-04-24T14:56:25.771Z,2.90
2023-04-24T14:58:53.314Z,2.40
2023-04-24T15:01:20.919Z,2.25
2023-04-24T15:03:48.790Z,2.38
2023-04-24T15:06:17.870Z,6.13
2023-04-24T15:08:46.425Z,2.13
2023-04-24T15:11:15.590Z,2.05
2023-04-24T15:13:43.042Z,3.88
2023-04-24T15:16:10.540Z,3.50
2023-04-24T15:18:38.203Z,2.75
2023-04-24T15:21:05.984Z,2.13
2023-04-24T15:23:34.892Z,2.10
2023-04-24T15:26:02.909Z,2.92
2023-04-24T15:28:30.479Z,1.90
2023-04-24T15:30:57.954Z,2.10
2023-04-24T15:33:26.790Z,2.65
2023-04-24T15:35:54.308Z,1.75
2023-04-24T15:38:21.864Z,2.15
2023-04-24T15:40:50.656Z,2.10
2023-04-24T15:43:18.185Z,1.85
2023-04-24T15:45:45.759Z,2.50
2023-04-24T15:48:13.333Z,6.40
2023-04-24T15:50:40.790Z,1.90
2023-04-24T15:53:08.252Z,2.10
2023-04-24T15:55:37.219Z,2.25
2023-04-24T15:58:06.171Z,1.95
2023-04-24T16:00:35.460Z,1.70
2023-04-24T16:03:03.550Z,2.00
2023-04-24T16:05:31.371Z,2.00
2023-04-24T16:07:58.898Z,2.10
2023-04-24T16:10:26.529Z,2.28
2023-04-24T16:12:54.567Z,2.03
2023-04-24T16:15:23.360Z,3.33
2023-04-24T16:17:51.480Z,9.98
2023-04-24T16:20:19.096Z,3.13
2023-04-24T16:22:46.746Z,2.70
2023-04-24T16:25:14.255Z,3.88
2023-04-24T16:27:41.818Z,2.88
2023-04-24T16:30:10.464Z,2.30
2023-04-24T16:32:39.430Z,2.58
2023-04-24T16:35:07.469Z,2.35
2023-04-24T16:37:34.988Z,2.22
2023-04-24T16:40:04.618Z,1.80
2023-04-24T16:42:32.113Z,2.10
2023-04-24T16:44:59.570Z,1.90
2023-04-24T16:47:27.129Z,2.33
2023-04-24T16:49:56.089Z,3.05
2023-04-24T16:52:23.598Z,2.10
2023-04-24T16:54:51.161Z,2.70
2023-04-24T16:57:18.616Z,2.15
2023-04-24T16:59:46.115Z,2.10
2023-04-24T17:02:14.232Z,3.40
2023-04-24T17:04:41.843Z,3.40
2023-04-24T17:07:10.751Z,7.68
2023-04-24T17:09:38.382Z,3.65
2023-04-24T17:12:07.448Z,4.10
2023-04-24T17:14:35.034Z,3.88
2023-04-24T17:17:02.678Z,3.15
2023-04-24T17:19:30.422Z,3.53
2023-04-24T17:21:58.761Z,2.50
2023-04-24T17:24:27.794Z,3.08
2023-04-24T17:27:01.708Z,6.45
2023-04-24T17:29:35.991Z,2.80
2023-04-24T17:32:03.526Z,2.70
2023-04-24T17:34:31.343Z,2.58
2023-04-24T17:36:58.906Z,2.28
2023-04-24T17:39:27.791Z,2.70
2023-04-24T17:41:55.260Z,3.85
2023-04-24T17:44:22.802Z,2.75
2023-04-24T17:46:50.575Z,2.60
2023-04-24T17:49:18.113Z,3.55
2023-04-24T17:51:45.597Z,2.92
2023-04-24T17:54:13.137Z,2.60
2023-04-24T17:56:42.061Z,3.28
2023-04-24T17:59:09.619Z,3.13
2023-04-24T18:01:37.193Z,3.22
2023-04-24T18:04:04.980Z,2.92
2023-04-24T18:06:32.797Z,2.85
2023-04-24T18:09:00.346Z,2.90
2023-04-24T18:11:29.015Z,3.15
2023-04-24T18:13:57.904Z,2.85
2023-04-24T18:16:25.968Z,2.65
2023-04-24T18:18:53.895Z,3.33
2023-04-24T18:21:21.417Z,3.33
2023-04-24T18:23:48.945Z,3.65
2023-04-24T18:26:17.100Z,4.63
2023-04-24T18:28:44.669Z,2.92
2023-04-24T18:31:13.528Z,3.30
2023-04-24T18:33:41.317Z,5.47
2023-04-24T18:36:08.813Z,3.97
2023-04-24T18:38:36.807Z,4.27
2023-04-24T18:41:04.422Z,6.90
2023-04-24T18:43:31.980Z,4.27
2023-04-24T18:45:59.454Z,4.50
2023-04-24T18:48:31.069Z,4.57
2023-04-24T18:50:58.760Z,4.13
2023-04-24T18:53:26.413Z,4.97
2023-04-24T18:55:53.874Z,5.23
2023-04-24T18:58:21.478Z,3.57
2023-04-24T19:00:48.976Z,3.35
2023-04-24T19:03:16.762Z,3.67
2023-04-24T19:05:45.785Z,4.40
2023-04-24T19:08:13.271Z,5.15
2023-04-24T19:10:40.871Z,4.13
2023-04-24T19:13:08.349Z,4.13
2023-04-24T19:15:35.783Z,3.70
2023-04-24T19:18:03.498Z,5.07
2023-04-24T19:20:31.039Z,3.63
2023-04-24T19:22:59.878Z,4.05
2023-04-24T19:25:27.400Z,3.97
2023-04-24T19:27:54.882Z,3.78
2023-04-24T19:30:22.563Z,5.00
2023-04-24T19:32:50.120Z,3.85
2023-04-24T19:35:17.785Z,3.77
2023-04-24T19:37:45.386Z,3.80
2023-04-24T19:40:14.401Z,4.40
2023-04-24T19:42:44.539Z,3.90
2023-04-24T19:45:12.735Z,3.70
2023-04-24T19:47:40.332Z,4.00
2023-04-24T19:50:08.881Z,4.37
2023-04-24T19:52:36.434Z,4.43
2023-04-24T19:55:04.005Z,5.00
2023-04-24T19:57:32.850Z,4.50
2023-04-24T20:00:00.500Z,4.20
2023-04-24T20:02:28.112Z,4.27
2023-04-24T20:04:55.911Z,4.70
2023-04-24T20:07:23.669Z,4.03
2023-04-24T20:09:51.214Z,4.33
2023-04-24T20:12:19.569Z,4.10
2023-04-24T20:14:49.234Z,4.30
2023-04-24T20:17:17.093Z,4.73
2023-04-24T20:19:44.792Z,4.70
2023-04-24T20:22:13.457Z,4.33
2023-04-24T20:24:41.347Z,4.77
2023-04-24T20:27:08.828Z,4.60
2023-04-24T20:29:36.661Z,4.63
2023-04-24T20:32:06.462Z,5.00
2023-04-24T20:34:33.997Z,5.13
2023-04-24T20:37:03.895Z,4.63
2023-04-24T20:39:31.391Z,5.03
2023-04-24T20:41:59.250Z,5.17
2023-04-24T20:44:26.770Z,4.97
2023-04-24T20:46:54.491Z,5.43
2023-04-24T20:49:23.351Z,5.10
2023-04-24T20:51:50.904Z,4.60
2023-04-24T20:54:18.393Z,5.03
2023-04-24T20:56:46.390Z,5.03
2023-04-24T20:59:13.911Z,5.20
2023-04-24T21:01:44.138Z,5.33
2023-04-24T21:04:12.055Z,5.17
2023-04-24T21:06:40.941Z,5.47
2023-04-24T21:09:09.444Z,5.23
2023-04-24T21:11:36.965Z,5.30
2023-04-24T21:14:04.456Z,5.30
2023-04-24T21:16:31.968Z,5.90
2023-04-24T21:18:59.466Z,6.07
2023-04-24T21:21:26.949Z,6.93
2023-04-24T21:23:55.839Z,6.97
2023-04-24T21:26:23.389Z,6.47
2023-04-24T21:28:50.956Z,7.70
2023-04-24T21:31:18.483Z,6.23
2023-04-24T21:33:45.986Z,6.93
2023-04-24T21:36:13.495Z,6.43
2023-04-24T21:38:40.974Z,6.23
2023-04-24T21:41:09.788Z,5.73
2023-04-24T21:43:44.821Z,5.33
2023-04-24T21:46:13.053Z,5.83
2023-04-24T21:48:40.541Z,6.13
2023-04-24T21:51:08.078Z,5.53
2023-04-24T21:53:35.544Z,5.33
2023-04-24T21:56:03.187Z,5.80
2023-04-24T21:58:32.069Z,5.07
2023-04-24T22:00:59.712Z,6.40
2023-04-24T22:03:27.387Z,6.03
2023-04-24T22:05:54.990Z,5.17
2023-04-24T22:08:22.476Z,5.10
2023-04-24T22:10:50.636Z,5.60
2023-04-24T22:13:18.172Z,5.97
2023-04-24T22:15:47.016Z,5.67
2023-04-24T22:18:14.471Z,5.77
2023-04-24T22:20:42.576Z,5.23
2023-04-24T22:23:10.119Z,7.20
2023-04-24T22:25:37.589Z,7.27
2023-04-24T22:28:05.178Z,6.93
2023-04-24T22:30:32.704Z,8.33
2023-04-24T22:33:01.593Z,5.87
2023-04-24T22:35:29.082Z,5.93
2023-04-24T22:37:57.399Z,5.27
2023-04-24T22:40:26.051Z,7.30
2023-04-24T22:42:53.959Z,5.13
2023-04-24T22:45:23.568Z,5.73
2023-04-24T22:47:51.345Z,5.10
2023-04-24T22:50:20.931Z,6.77
2023-04-24T22:52:48.562Z,5.37
2023-04-24T22:55:16.165Z,4.90
2023-04-24T22:57:44.012Z,4.93
2023-04-24T23:00:13.002Z,5.10
2023-04-24T23:02:42.025Z,5.17
2023-04-24T23:05:10.929Z,4.67
2023-04-24T23:07:39.828Z,4.97
2023-04-24T23:10:08.192Z,6.03
2023-04-24T23:12:35.819Z,6.87
2023-04-24T23:15:03.448Z,5.37
2023-04-24T23:17:30.965Z,5.20
2023-04-24T23:19:58.468Z,5.63
2023-04-24T23:22:25.998Z,8.80
2023-04-24T23:24:54.808Z,5.23
2023-04-24T23:27:22.304Z,4.77
2023-04-24T23:29:50.019Z,7.63
2023-04-24T23:32:17.536Z,4.50
2023-04-24T23:34:45.663Z,4.47
2023-04-24T23:37:13.266Z,5.07
2023-04-24T23:39:40.748Z,4.70
2023-04-24T23:42:09.533Z,4.40
2023-04-24T23:44:37.853Z,4.90
2023-04-24T23:47:05.408Z,4.13
2023-04-24T23:49:32.910Z,3.37
2023-04-24T23:52:00.468Z,4.60
2023-04-24T23:54:27.962Z,3.70
2023-04-24T23:56:55.844Z,6.53
2023-04-24T23:59:24.649Z,5.77
